createdAt,value
2019-04-14T00:00:01.215Z,100649.44
2019-04-14T00:02:51.234Z,100654.27
2019-04-14T00:05:23.330Z,100650.01
2019-04-14T00:07:55.993Z,100654.78
2019-04-14T00:10:28.994Z,100650.96
2019-04-14T00:13:02.421Z,100648.73
2019-04-14T00:15:39.579Z,100651.91
2019-04-14T00:18:09.677Z,100657.16
2019-04-14T00:20:42.577Z,100656.77
2019-04-14T00:23:15.203Z,100655.45
2019-04-14T00:25:47.653Z,100661.04
2019-04-14T00:28:20.651Z,100655.02
2019-04-14T00:30:53.380Z,100665.03
2019-04-14T00:33:25.986Z,100658.57
2019-04-14T00:36:11.754Z,100662.02
2019-04-14T00:38:47.869Z,100663.31
2019-04-14T00:41:41.369Z,100663.31
2019-04-14T00:44:10.381Z,100663.70
2019-04-14T00:47:05.019Z,100665.03
2019-04-14T00:49:37.650Z,100665.90
2019-04-14T00:52:10.059Z,100673.72
2019-04-14T00:54:43.507Z,100667.20
2019-04-14T00:57:15.896Z,100669.35
2019-04-14T00:59:48.714Z,100665.00
2019-04-14T01:02:21.130Z,100666.82
2019-04-14T01:04:53.474Z,100665.50
2019-04-14T01:07:26.185Z,100669.84
2019-04-14T01:09:59.593Z,100660.28
2019-04-14T01:12:32.112Z,100669.41
2019-04-14T01:15:04.999Z,100669.78
2019-04-14T01:17:37.403Z,100667.20
2019-04-14T01:20:12.535Z,100674.13
2019-04-14T01:22:44.806Z,100671.52
2019-04-14T01:25:17.049Z,100673.67
2019-04-14T01:27:49.525Z,100675.00
2019-04-14T01:30:24.055Z,100674.16
2019-04-14T01:32:56.544Z,100672.47
2019-04-14T01:35:27.571Z,100676.33
2019-04-14T01:37:59.483Z,100673.70
2019-04-14T01:40:31.446Z,100665.03
2019-04-14T01:43:03.902Z,100672.06
2019-04-14T01:45:36.195Z,100669.02
2019-04-14T01:48:08.436Z,100661.66
2019-04-14T01:51:00.558Z,100662.97
2019-04-14T01:53:44.583Z,100668.64
2019-04-14T01:56:22.976Z,100668.64
2019-04-14T01:58:57.858Z,100669.95
2019-04-14T02:01:32.468Z,100666.09
2019-04-14T02:04:05.019Z,100670.48
2019-04-14T02:06:37.642Z,100668.34
2019-04-14T02:09:12.072Z,100666.63
2019-04-14T02:11:44.584Z,100668.36
2019-04-14T02:14:16.869Z,100667.95
2019-04-14T02:16:54.148Z,100672.38
2019-04-14T02:19:22.601Z,100672.41
2019-04-14T02:21:54.744Z,100668.92
2019-04-14T02:24:26.371Z,100672.79
2019-04-14T02:26:59.133Z,100676.34
2019-04-14T02:29:31.881Z,100675.88
2019-04-14T02:35:02.014Z,100673.73
2019-04-14T02:42:47.723Z,100673.91
2019-04-14T02:50:43.659Z,100682.27
2019-04-14T02:58:16.138Z,100684.66
2019-04-14T03:00:48.524Z,100680.41
2019-04-14T03:03:27.874Z,100682.30
2019-04-14T03:05:58.882Z,100680.69
2019-04-14T03:11:01.642Z,100676.11
2019-04-14T03:13:40.154Z,100685.63
2019-04-14T03:16:13.789Z,100690.04
2019-04-14T03:19:13.950Z,100685.77
2019-04-14T03:22:26.155Z,100688.02
2019-04-14T03:24:53.853Z,100690.72
2019-04-14T03:27:40.346Z,100690.29
2019-04-14T03:30:46.293Z,100694.81
2019-04-14T03:38:13.217Z,100694.58
2019-04-14T03:43:18.767Z,100691.67
2019-04-14T03:45:59.306Z,100696.02
2019-04-14T03:48:42.775Z,100698.62
2019-04-14T03:50:56.579Z,100702.57
2019-04-14T03:53:34.692Z,100702.63
2019-04-14T03:56:12.626Z,100698.29
2019-04-14T03:58:42.653Z,100704.02
2019-04-14T04:01:15.141Z,100711.31
2019-04-14T04:03:47.891Z,100708.31
2019-04-14T04:06:20.361Z,100710.95
2019-04-14T04:08:53.150Z,100711.05
2019-04-14T04:11:25.801Z,100709.73
2019-04-14T04:13:58.478Z,100708.45
2019-04-14T04:16:41.914Z,100707.98
2019-04-14T04:19:23.065Z,100714.97
2019-04-14T04:22:26.084Z,100708.50
2019-04-14T04:25:03.153Z,100710.27
2019-04-14T04:28:03.768Z,100714.58
2019-04-14T04:30:47.028Z,100710.77
2019-04-14T04:33:26.314Z,100717.30
2019-04-14T04:36:03.236Z,100715.12
2019-04-14T04:38:42.154Z,100725.58
2019-04-14T04:41:14.708Z,100721.67
2019-04-14T04:43:47.327Z,100729.41
2019-04-14T04:46:19.771Z,100731.59
2019-04-14T04:49:03.224Z,100736.38
2019-04-14T04:51:26.790Z,100733.30
2019-04-14T04:53:59.460Z,100734.99
2019-04-14T04:56:32.013Z,100734.98
2019-04-14T04:59:05.430Z,100735.39
2019-04-14T05:01:38.658Z,100737.97
2019-04-14T05:04:11.084Z,100737.03
2019-04-14T05:07:01.318Z,100745.28
2019-04-14T05:09:51.396Z,100743.11
2019-04-14T05:12:41.504Z,100738.78
2019-04-14T05:15:38.694Z,100749.58
2019-04-14T05:18:22.416Z,100751.27
2019-04-14T05:20:55.449Z,100752.97
2019-04-14T05:23:27.920Z,100759.46
2019-04-14T05:26:03.184Z,100755.07
2019-04-14T05:28:35.463Z,100766.23
2019-04-14T05:31:07.520Z,100763.98
2019-04-14T05:33:40.422Z,100766.37
2019-04-14T05:36:13.012Z,100765.87
2019-04-14T05:38:45.139Z,100762.80
2019-04-14T05:41:18.000Z,100766.90
2019-04-14T05:43:56.554Z,100766.23
2019-04-14T05:46:25.250Z,100770.77
2019-04-14T05:48:57.919Z,100768.38
2019-04-14T05:51:30.571Z,100773.30
2019-04-14T05:54:03.428Z,100771.31
2019-04-14T05:56:37.666Z,100760.62
2019-04-14T05:59:09.726Z,100767.76
2019-04-14T06:01:42.169Z,100772.77
2019-04-14T06:04:14.264Z,100767.69
2019-04-14T06:06:46.395Z,100773.08
2019-04-14T06:09:17.532Z,100772.36
2019-04-14T06:11:49.424Z,100768.02
2019-04-14T06:14:21.729Z,100775.59
2019-04-14T06:16:53.794Z,100769.81
2019-04-14T06:19:36.174Z,100771.56
2019-04-14T06:21:59.273Z,100778.65
2019-04-14T06:24:30.482Z,100781.81
2019-04-14T06:27:02.684Z,100786.22
2019-04-14T06:29:34.819Z,100783.30
2019-04-14T06:32:24.893Z,100785.41
2019-04-14T06:35:15.494Z,100784.47
2019-04-14T06:37:51.823Z,100788.39
2019-04-14T06:40:24.524Z,100789.64
2019-04-14T06:42:56.584Z,100792.30
2019-04-14T06:45:29.184Z,100791.88
2019-04-14T06:48:01.914Z,100789.40
2019-04-14T06:50:34.306Z,100793.55
2019-04-14T06:53:06.473Z,100798.96
2019-04-14T06:55:37.543Z,100793.50
2019-04-14T06:58:09.324Z,100795.31
2019-04-14T07:00:42.153Z,100789.73
2019-04-14T07:03:13.422Z,100799.23
2019-04-14T07:05:45.384Z,100794.33
2019-04-14T07:08:16.753Z,100797.70
2019-04-14T07:10:48.784Z,100801.36
2019-04-14T07:13:21.041Z,100803.27
2019-04-14T07:15:53.184Z,100800.33
2019-04-14T07:18:25.297Z,100808.36
2019-04-14T07:20:56.436Z,100806.37
2019-04-14T07:23:28.513Z,100803.94
2019-04-14T07:26:01.656Z,100812.80
2019-04-14T07:28:34.024Z,100812.08
2019-04-14T07:31:28.294Z,100813.34
2019-04-14T07:34:20.404Z,100809.03
2019-04-14T07:37:14.295Z,100813.50
2019-04-14T07:40:05.534Z,100811.86
2019-04-14T07:42:51.074Z,100820.85
2019-04-14T07:45:30.824Z,100822.05
2019-04-14T07:48:13.084Z,100817.64
2019-04-14T07:51:18.864Z,100821.41
2019-04-14T07:53:57.584Z,100814.13
2019-04-14T07:56:46.793Z,100818.33
2019-04-14T07:59:43.775Z,100817.52
2019-04-14T08:02:22.044Z,100822.48
2019-04-14T08:05:06.174Z,100818.04
2019-04-14T08:07:38.304Z,100816.23
2019-04-14T08:10:10.456Z,100819.14
2019-04-14T08:12:42.894Z,100825.12
2019-04-14T08:15:15.434Z,100829.11
2019-04-14T08:17:47.553Z,100818.85
2019-04-14T08:20:27.328Z,100818.52
2019-04-14T08:22:53.415Z,100823.23
2019-04-14T08:25:25.417Z,100827.48
2019-04-14T08:27:57.447Z,100826.51
2019-04-14T08:30:29.427Z,100823.48
2019-04-14T08:33:01.799Z,100824.93
2019-04-14T08:35:33.942Z,100829.75
2019-04-14T08:38:06.947Z,100828.50
2019-04-14T08:40:40.334Z,100829.87
2019-04-14T08:43:26.504Z,100831.48
2019-04-14T08:46:17.505Z,100833.81
2019-04-14T08:49:12.154Z,100826.45
2019-04-14T08:52:01.584Z,100826.23
2019-04-14T08:54:49.468Z,100825.53
2019-04-14T08:57:39.997Z,100821.64
2019-04-14T09:00:35.205Z,100825.77
2019-04-14T09:03:19.425Z,100822.44
2019-04-14T09:06:00.074Z,100827.57
2019-04-14T09:08:39.855Z,100827.34
2019-04-14T09:11:12.363Z,100826.02
2019-04-14T09:13:44.364Z,100822.67
2019-04-14T09:16:16.394Z,100819.63
2019-04-14T09:18:48.464Z,100833.42
2019-04-14T09:21:20.644Z,100832.93
2019-04-14T09:23:52.634Z,100829.50
2019-04-14T09:26:24.624Z,100831.55
2019-04-14T09:28:56.794Z,100833.27
2019-04-14T09:31:29.034Z,100835.69
2019-04-14T09:34:01.144Z,100833.17
2019-04-14T09:36:33.344Z,100833.84
2019-04-14T09:39:05.972Z,100832.34
2019-04-14T09:41:39.458Z,100828.48
2019-04-14T09:44:11.464Z,100830.16
2019-04-14T09:46:43.414Z,100836.86
2019-04-14T09:49:15.464Z,100827.59
2019-04-14T09:51:47.523Z,100835.91
2019-04-14T09:54:19.665Z,100838.16
2019-04-14T09:56:51.623Z,100835.86
2019-04-14T09:59:23.594Z,100839.72
2019-04-14T10:01:55.817Z,100838.45
2019-04-14T10:04:28.155Z,100844.31
2019-04-14T10:06:59.182Z,100832.87
2019-04-14T10:09:31.183Z,100838.30
2019-04-14T10:12:03.225Z,100844.20
2019-04-14T10:14:35.195Z,100842.55
2019-04-14T10:17:07.277Z,100832.86
2019-04-14T10:19:39.273Z,100835.61
2019-04-14T10:22:11.261Z,100835.80
2019-04-14T10:24:43.304Z,100829.63
2019-04-14T10:27:15.223Z,100831.61
2019-04-14T10:29:47.404Z,100837.91
2019-04-14T10:32:18.472Z,100838.94
2019-04-14T10:34:50.193Z,100825.02
2019-04-14T10:37:22.274Z,100831.23
2019-04-14T10:39:54.294Z,100827.63
2019-04-14T10:42:26.284Z,100825.77
2019-04-14T10:44:58.316Z,100827.45
2019-04-14T10:47:30.384Z,100829.36
2019-04-14T10:50:02.394Z,100828.87
2019-04-14T10:52:34.354Z,100826.80
2019-04-14T10:55:07.474Z,100826.02
2019-04-14T10:57:39.567Z,100818.04
2019-04-14T11:00:14.679Z,100814.81
2019-04-14T11:02:46.803Z,100825.44
2019-04-14T11:05:17.843Z,100828.36
2019-04-14T11:07:49.856Z,100810.97
2019-04-14T11:10:21.802Z,100818.46
2019-04-14T11:12:53.052Z,100815.14
2019-04-14T11:15:27.235Z,100812.41
2019-04-14T11:17:59.244Z,100824.75
2019-04-14T11:20:31.296Z,100813.05
2019-04-14T11:23:03.845Z,100805.22
2019-04-14T11:25:35.974Z,100816.63
2019-04-14T11:28:08.434Z,100806.74
2019-04-14T11:30:42.145Z,100803.60
2019-04-14T11:33:39.094Z,100803.02
2019-04-14T11:36:28.733Z,100803.81
2019-04-14T11:39:09.696Z,100803.13
2019-04-14T11:41:42.056Z,100807.53
2019-04-14T11:44:14.255Z,100810.91
2019-04-14T11:46:46.394Z,100801.39
2019-04-14T11:49:18.072Z,100807.10
2019-04-14T11:51:55.543Z,100804.37
2019-04-14T11:54:24.434Z,100803.54
2019-04-14T11:57:00.878Z,100801.38
2019-04-14T11:59:42.873Z,100805.88
2019-04-14T12:02:19.925Z,100799.34
2019-04-14T12:05:09.984Z,100799.78
2019-04-14T12:07:51.342Z,100805.88
2019-04-14T12:10:27.254Z,100793.84
2019-04-14T12:12:59.433Z,100795.80
2019-04-14T12:15:30.375Z,100795.46
2019-04-14T12:18:02.255Z,100786.83
2019-04-14T12:20:33.333Z,100794.06
2019-04-14T12:23:05.276Z,100792.72
2019-04-14T12:25:37.317Z,100788.36
2019-04-14T12:28:09.187Z,100783.02
2019-04-14T12:30:42.744Z,100774.47
2019-04-14T12:33:15.004Z,100780.30
2019-04-14T12:35:45.932Z,100785.55
2019-04-14T12:38:17.694Z,100780.25
2019-04-14T12:40:50.753Z,100783.05
2019-04-14T12:43:41.564Z,100781.27
2019-04-14T12:46:41.514Z,100772.91
2019-04-14T12:49:20.252Z,100769.73
2019-04-14T12:52:20.653Z,100771.05
2019-04-14T12:54:43.684Z,100770.91
2019-04-14T12:57:17.535Z,100775.33
2019-04-14T12:59:49.924Z,100768.12
2019-04-14T13:02:24.155Z,100771.60
2019-04-14T13:04:56.258Z,100768.58
2019-04-14T13:07:27.262Z,100774.05
2019-04-14T13:09:59.289Z,100764.82
2019-04-14T13:12:31.315Z,100765.23
2019-04-14T13:15:03.498Z,100758.33
2019-04-14T13:17:35.514Z,100755.73
2019-04-14T13:20:08.394Z,100762.68
2019-04-14T13:22:40.584Z,100759.16
2019-04-14T13:25:12.843Z,100752.57
2019-04-14T13:27:45.086Z,100759.28
2019-04-14T13:30:19.383Z,100763.33
2019-04-14T13:32:51.393Z,100763.02
2019-04-14T13:35:23.493Z,100756.88
2019-04-14T13:37:55.630Z,100752.33
2019-04-14T13:40:28.574Z,100753.64
2019-04-14T13:42:59.530Z,100743.52
2019-04-14T13:45:31.535Z,100747.12
2019-04-14T13:48:02.487Z,100745.39
2019-04-14T13:50:34.263Z,100753.68
2019-04-14T13:53:06.303Z,100747.23
2019-04-14T13:55:38.339Z,100748.30
2019-04-14T13:58:11.350Z,100750.30
2019-04-14T14:00:42.246Z,100747.60
2019-04-14T14:03:13.974Z,100729.98
2019-04-14T14:05:46.158Z,100739.36
2019-04-14T14:08:17.313Z,100744.33
2019-04-14T14:10:49.307Z,100740.19
2019-04-14T14:13:38.860Z,100739.77
2019-04-14T14:16:42.747Z,100736.89
2019-04-14T14:19:36.443Z,100738.98
2019-04-14T14:22:33.514Z,100735.52
2019-04-14T14:25:13.274Z,100736.59
2019-04-14T14:30:46.510Z,100733.28
2019-04-14T14:33:17.751Z,100749.67
2019-04-14T14:35:52.668Z,100739.28
2019-04-14T14:38:29.498Z,100738.70
2019-04-14T14:41:03.630Z,100739.38
2019-04-14T14:43:35.890Z,100737.97
2019-04-14T14:46:33.138Z,100731.42
2019-04-14T14:49:16.189Z,100727.88
2019-04-14T14:51:51.183Z,100733.23
2019-04-14T14:54:23.620Z,100729.21
2019-04-14T14:56:54.828Z,100737.37
2019-04-14T14:59:26.680Z,100736.03
2019-04-14T15:01:58.670Z,100730.72
2019-04-14T15:04:30.623Z,100736.49
2019-04-14T15:07:02.654Z,100731.55
2019-04-14T15:09:34.605Z,100738.36
2019-04-14T15:12:06.749Z,100737.12
2019-04-14T15:14:37.868Z,100739.48
2019-04-14T15:17:10.010Z,100733.51
2019-04-14T15:19:43.376Z,100738.91
2019-04-14T15:22:16.230Z,100730.84
2019-04-14T15:24:48.560Z,100735.22
2019-04-14T15:27:20.980Z,100734.46
2019-04-14T15:29:53.010Z,100741.70
2019-04-14T15:32:26.790Z,100745.27
2019-04-14T15:34:58.860Z,100742.63
2019-04-14T15:37:35.394Z,100744.02
2019-04-14T15:40:07.909Z,100743.60
2019-04-14T15:42:40.025Z,100752.23
2019-04-14T15:45:13.965Z,100745.25
2019-04-14T15:47:46.360Z,100745.14
2019-04-14T15:50:18.380Z,100742.30
2019-04-14T15:52:50.559Z,100739.05
2019-04-14T15:55:23.220Z,100742.01
2019-04-14T15:58:19.028Z,100736.02
2019-04-14T16:01:14.901Z,100745.75
2019-04-14T16:04:08.700Z,100750.41
2019-04-14T16:06:46.180Z,100747.97
2019-04-14T16:09:37.082Z,100752.04
2019-04-14T16:12:30.840Z,100755.61
2019-04-14T16:15:20.300Z,100753.28
2019-04-14T16:18:11.255Z,100754.69
2019-04-14T16:20:44.310Z,100753.45
2019-04-14T16:23:16.428Z,100761.73
2019-04-14T16:26:07.661Z,100754.91
2019-04-14T16:28:45.401Z,100753.98
2019-04-14T16:31:43.343Z,100752.47
2019-04-14T16:34:27.580Z,100755.06
2019-04-14T16:36:59.597Z,100759.31
2019-04-14T16:39:31.624Z,100753.75
2019-04-14T16:42:03.790Z,100758.23
2019-04-14T16:44:36.238Z,100761.44
2019-04-14T16:47:07.218Z,100759.23
2019-04-14T16:49:42.614Z,100766.73
2019-04-14T16:52:39.102Z,100773.25
2019-04-14T16:55:30.558Z,100771.94
2019-04-14T16:58:22.400Z,100780.00
2019-04-14T17:01:14.104Z,100776.05
2019-04-14T17:03:47.420Z,100775.55
2019-04-14T17:06:19.709Z,100777.16
2019-04-14T17:08:53.520Z,100781.19
2019-04-14T17:11:25.490Z,100776.72
2019-04-14T17:14:08.310Z,100779.70
2019-04-14T17:16:57.770Z,100788.05
2019-04-14T17:20:00.770Z,100789.87
2019-04-14T17:22:57.325Z,100790.36
2019-04-14T17:25:34.298Z,100787.20
2019-04-14T17:28:25.701Z,100798.52
2019-04-14T17:31:03.860Z,100801.58
2019-04-14T17:33:45.336Z,100799.11
2019-04-14T17:36:35.118Z,100804.28
2019-04-14T17:39:27.068Z,100807.93
2019-04-14T17:42:10.499Z,100810.30
2019-04-14T17:45:00.720Z,100811.12
2019-04-14T17:47:58.893Z,100817.02
2019-04-14T17:50:50.024Z,100822.00
2019-04-14T17:53:37.470Z,100820.55
2019-04-14T17:56:20.456Z,100822.90
2019-04-14T17:59:16.540Z,100825.81
2019-04-14T18:02:16.669Z,100829.59
2019-04-14T18:05:20.440Z,100830.28
2019-04-14T18:08:18.470Z,100828.25
2019-04-14T18:11:20.342Z,100832.82
2019-04-14T18:14:09.301Z,100837.53
2019-04-14T18:16:55.252Z,100843.84
2019-04-14T18:19:33.920Z,100850.94
2019-04-14T18:22:06.718Z,100853.75
2019-04-14T18:24:42.627Z,100851.64
2019-04-14T18:27:14.762Z,100862.74
2019-04-14T18:29:52.301Z,100866.81
2019-04-14T18:32:37.890Z,100860.30
2019-04-14T18:35:33.655Z,100872.74
2019-04-14T18:38:30.102Z,100873.83
2019-04-14T18:41:08.010Z,100875.67
2019-04-14T18:43:59.180Z,100880.98
2019-04-14T18:46:50.020Z,100878.58
2019-04-14T18:49:30.399Z,100880.89
2019-04-14T18:52:37.587Z,100888.52
2019-04-14T18:55:26.317Z,100886.06
2019-04-14T18:58:16.971Z,100884.48
2019-04-14T19:00:56.406Z,100883.01
2019-04-14T19:03:28.510Z,100887.46
2019-04-14T19:06:01.630Z,100882.02
2019-04-14T19:08:33.670Z,100886.07
2019-04-14T19:11:23.560Z,100890.12
2019-04-14T19:13:58.360Z,100895.47
2019-04-14T19:16:40.233Z,100904.31
2019-04-14T19:19:16.121Z,100903.96
2019-04-14T19:21:49.599Z,100902.25
2019-04-14T19:24:21.620Z,100903.68
2019-04-14T19:26:54.119Z,100904.27
2019-04-14T19:29:27.778Z,100906.81
2019-04-14T19:32:00.070Z,100906.06
2019-04-14T19:34:32.259Z,100911.41
2019-04-14T19:37:05.274Z,100915.14
2019-04-14T19:39:37.320Z,100916.45
2019-04-14T19:42:09.919Z,100915.66
2019-04-14T19:44:43.029Z,100912.73
2019-04-14T19:47:16.468Z,100912.38
2019-04-14T19:49:48.280Z,100917.00
2019-04-14T19:52:20.460Z,100911.02
2019-04-14T19:54:51.496Z,100912.84
2019-04-14T19:57:23.754Z,100923.33
2019-04-14T19:59:55.700Z,100920.72
2019-04-14T20:02:27.901Z,100925.54
2019-04-14T20:05:05.960Z,100924.23
2019-04-14T20:07:43.070Z,100927.30
2019-04-14T20:10:16.959Z,100931.78
2019-04-14T20:12:55.459Z,100930.60
2019-04-14T20:15:34.180Z,100935.01
2019-04-14T20:18:48.839Z,100936.77
2019-04-14T20:21:58.199Z,100936.77
2019-04-14T20:24:37.249Z,100944.65
2019-04-14T20:27:39.329Z,100946.84
2019-04-14T20:30:36.671Z,100945.30
2019-04-14T20:33:09.819Z,100939.38
2019-04-14T20:35:42.069Z,100951.72
2019-04-14T20:38:14.211Z,100954.77
2019-04-14T20:40:46.270Z,100954.33
2019-04-14T20:43:18.920Z,100959.18
2019-04-14T20:45:51.110Z,100957.99
2019-04-14T20:48:23.203Z,100959.78
2019-04-14T20:50:55.724Z,100968.97
2019-04-14T20:53:28.130Z,100968.97
2019-04-14T20:56:04.969Z,100968.58
2019-04-14T20:58:48.290Z,100971.28
2019-04-14T21:01:27.176Z,100973.22
2019-04-14T21:04:24.490Z,100974.16
2019-04-14T21:07:35.980Z,100976.88
2019-04-14T21:10:24.688Z,100969.56
2019-04-14T21:13:18.210Z,100974.83
2019-04-14T21:15:55.980Z,100974.43
2019-04-14T21:18:45.180Z,100972.28
2019-04-14T21:21:39.072Z,100979.70
2019-04-14T21:24:35.701Z,100975.85
2019-04-14T21:27:34.629Z,100981.08
2019-04-14T21:30:15.073Z,100985.86
2019-04-14T21:32:52.699Z,100985.47
2019-04-14T21:35:31.720Z,100986.77
2019-04-14T21:38:17.530Z,100991.16
2019-04-14T21:40:52.911Z,100990.39
2019-04-14T21:43:24.810Z,100990.42
2019-04-14T21:45:56.832Z,100996.52
2019-04-14T21:48:29.889Z,100997.47
2019-04-14T21:51:01.910Z,100998.05
2019-04-14T21:53:33.882Z,100998.55
2019-04-14T21:56:13.592Z,101002.95
2019-04-14T21:58:48.609Z,101002.16
2019-04-14T22:02:16.380Z,100998.28
2019-04-14T22:05:13.090Z,100998.70
2019-04-14T22:08:09.831Z,100995.27
2019-04-14T22:10:45.631Z,100991.39
2019-04-14T22:14:02.152Z,100995.80
2019-04-14T22:16:34.620Z,100998.88
2019-04-14T22:19:07.769Z,100998.55
2019-04-14T22:21:40.079Z,101005.96
2019-04-14T22:24:12.509Z,100998.23
2019-04-14T22:26:44.986Z,101008.66
2019-04-14T22:29:17.500Z,101007.36
2019-04-14T22:31:50.469Z,101006.14
2019-04-14T22:34:22.870Z,101006.70
2019-04-14T22:36:55.879Z,101010.62
2019-04-14T22:39:28.380Z,101014.94
2019-04-14T22:42:01.270Z,101007.61
2019-04-14T22:44:34.260Z,101009.74
2019-04-14T22:47:06.790Z,101013.64
2019-04-14T22:49:39.219Z,101016.71
2019-04-14T22:52:11.659Z,101019.81
2019-04-14T22:54:44.231Z,101021.12
2019-04-14T22:57:16.649Z,101020.27
2019-04-14T22:59:49.230Z,101019.81
2019-04-14T23:02:39.090Z,101022.07
2019-04-14T23:05:30.450Z,101013.45
2019-04-14T23:08:18.020Z,101020.36
2019-04-14T23:10:59.745Z,101018.19
2019-04-14T23:13:41.229Z,101019.95
2019-04-14T23:16:32.569Z,101013.05
2019-04-14T23:19:09.170Z,101017.48
2019-04-14T23:21:45.850Z,101020.55
2019-04-14T23:24:21.492Z,101023.22
2019-04-14T23:26:53.939Z,101029.25
2019-04-14T23:29:26.511Z,101026.23
2019-04-14T23:31:59.076Z,101019.80
2019-04-14T23:34:32.169Z,101026.34
2019-04-14T23:37:05.339Z,101029.41
2019-04-14T23:39:37.810Z,101028.16
2019-04-14T23:42:10.540Z,101031.23
2019-04-14T23:44:42.991Z,101030.39
2019-04-14T23:47:15.592Z,101030.43
2019-04-14T23:49:49.322Z,101021.80
2019-04-14T23:52:21.689Z,101025.31
2019-04-14T23:54:54.059Z,101022.75
2019-04-14T23:57:26.459Z,101026.68
2019-04-14T23:59:59.194Z,101027.13
